Time;durP1;ratioP1;P1;durP2;ratioP2;P2;SDS_P1;SDS_P2;PMS_P1;PMS_P2;Temp;Humidity;BMP_temperature;BMP_pressure;BME280_temperature;BME280_humidity;BME280_pressure;Samples;Min_cycle;Max_cycle;Signal;HPM_P1;HPM_P2
2022/03/11 00:01:43;;;;;;;;;;;;;;;21.39;38.90;102545.47;5079970;28;4305;-73
2022/03/11 00:04:29;;;;;;;;;;;;;;;21.39;38.97;102542.59;5074124;28;4102;-72
2022/03/11 00:06:56;;;;;;;;;;;;;;;21.39;38.93;102539.69;5079082;28;4108;-72
2022/03/11 00:09:22;;;;;;;;;;;;;;;21.38;39.07;102538.19;5077433;28;4043;-71
2022/03/11 00:11:48;;;;;;;;;;;;;;;21.37;38.97;102533.78;5079984;28;4023;-72
2022/03/11 00:14:15;;;;;;;;;;;;;;;21.38;38.87;102535.31;5077363;28;6290;-72
2022/03/11 00:16:41;;;;;;;;;;;;;;;21.37;39.00;102534.53;5078090;28;3959;-72
2022/03/11 00:19:08;;;;;;;;;;;;;;;21.38;39.07;102532.44;5079801;28;4120;-72
2022/03/11 00:21:34;;;;;;;;;;;;;;;21.38;38.87;102538.19;5077454;28;4584;-73
2022/03/11 00:24:01;;;;;;;;;;;;;;;21.40;38.96;102530.47;5076554;27;4654;-72
2022/03/11 00:26:28;;;;;;;;;;;;;;;21.39;38.92;102526.03;5079416;28;4151;-72
2022/03/11 00:28:54;;;;;;;;;;;;;;;21.40;38.89;102529.69;5072869;28;4222;-72
2022/03/11 00:31:21;;;;;;;;;;;;;;;21.40;38.85;102532.59;5078201;28;5252;-72
2022/03/11 00:33:47;;;;;;;;;;;;;;;21.39;38.89;102528.91;5078856;28;4221;-72
2022/03/11 00:36:13;;;;;;;;;;;;;;;21.37;38.90;102536.69;5079955;28;4183;-73
2022/03/11 00:38:40;;;;;;;;;;;;;;;21.38;38.81;102538.19;5075014;28;4508;-72
2022/03/11 00:41:06;;;;;;;;;;;;;;;21.36;38.86;102538.81;5074105;28;5766;-72
2022/03/11 00:43:33;;;;;;;;;;;;;;;21.34;38.97;102527.88;5075359;28;5534;-73
2022/03/11 00:45:59;;;;;;;;;;;;;;;21.36;38.79;102533.03;5077216;28;4079;-72
2022/03/11 00:48:27;;;;;;;;;;;;;;;21.38;38.80;102538.19;5075785;28;4253;-72
2022/03/11 00:50:53;;;;;;;;;;;;;;;21.38;38.88;102532.44;5079407;28;4355;-71
2022/03/11 00:53:20;;;;;;;;;;;;;;;21.36;38.72;102535.94;5075773;28;3990;-73
2022/03/11 00:55:46;;;;;;;;;;;;;;;21.33;38.87;102532.16;5067221;28;4055;-73
2022/03/11 00:58:12;;;;;;;;;;;;;;;21.34;38.83;102532.91;5065624;28;4207;-72
2022/03/11 01:00:39;;;;;;;;;;;;;;;21.34;38.75;102532.91;5066259;28;4529;-72
2022/03/11 01:03:06;;;;;;;;;;;;;;;21.33;38.69;102520.63;5061534;28;4157;-73
2022/03/11 01:05:32;;;;;;;;;;;;;;;21.34;38.74;102522.13;5067503;28;3967;-73
2022/03/11 01:07:59;;;;;;;;;;;;;;;21.36;38.75;102529.41;5064139;27;5791;-72
2022/03/11 01:10:25;;;;;;;;;;;;;;;21.38;38.89;102523.78;5069046;28;4161;-72
2022/03/11 01:12:51;;;;;;;;;;;;;;;21.38;38.83;102520.91;5072325;28;4020;-71
2022/03/11 01:15:18;;;;;;;;;;;;;;;21.36;38.50;102523.66;5077332;28;4413;-72
2022/03/11 01:17:44;;;;;;;;;;;;;;;21.37;38.75;102516.50;5073509;28;4134;-73
2022/03/11 01:20:11;;;;;;;;;;;;;;;21.37;38.78;102513.63;5074228;28;4373;-72
2022/03/11 01:22:38;;;;;;;;;;;;;;;21.33;38.65;102514.13;5075201;28;5309;-72
2022/03/11 01:25:04;;;;;;;;;;;;;;;21.34;38.95;102515.59;5076628;28;4918;-72
2022/03/11 01:27:31;;;;;;;;;;;;;;;21.32;38.90;102513.34;5075925;28;4120;-73
2022/03/11 01:29:57;;;;;;;;;;;;;;;21.33;38.66;102514.84;5078137;28;4019;-72
2022/03/11 01:32:23;;;;;;;;;;;;;;;21.33;38.65;102511.97;5076734;28;4540;-72
2022/03/11 01:34:50;;;;;;;;;;;;;;;21.33;38.66;102509.09;5074937;28;5644;-73
2022/03/11 01:37:16;;;;;;;;;;;;;;;21.32;38.57;102496.03;5075942;28;4446;-73
2022/03/11 01:39:43;;;;;;;;;;;;;;;21.33;38.71;102511.97;5076239;28;4046;-72
2022/03/11 01:42:09;;;;;;;;;;;;;;;21.34;38.70;102510.59;5077231;28;4031;-73
2022/03/11 01:44:36;;;;;;;;;;;;;;;21.33;38.69;102506.22;5078967;28;4216;-72
2022/03/11 01:47:02;;;;;;;;;;;;;;;21.32;38.70;102513.34;5075383;28;5283;-72
2022/03/11 01:49:29;;;;;;;;;;;;;;;21.31;38.68;102506.06;5078246;28;4020;-72
2022/03/11 01:51:55;;;;;;;;;;;;;;;21.31;38.68;102508.97;5076206;28;4117;-72
2022/03/11 01:54:21;;;;;;;;;;;;;;;21.32;38.66;102507.56;5075234;28;4094;-71
2022/03/11 01:56:48;;;;;;;;;;;;;;;21.30;38.59;102504.56;5076519;28;4545;-72
2022/03/11 01:59:14;;;;;;;;;;;;;;;21.31;38.47;102511.84;5074270;28;4399;-72
2022/03/11 02:01:41;;;;;;;;;;;;;;;21.31;38.48;102511.84;5075082;28;4075;-72
2022/03/11 02:04:07;;;;;;;;;;;;;;;21.32;38.64;102501.81;5073823;28;4329;-72
2022/03/11 02:06:34;;;;;;;;;;;;;;;21.32;38.50;102513.34;5074021;28;4147;-72
2022/03/11 02:09:00;;;;;;;;;;;;;;;21.31;38.46;102508.97;5075765;28;5374;-72
2022/03/11 02:11:26;;;;;;;;;;;;;;;21.31;38.70;102503.19;5073188;28;4222;-73
2022/03/11 02:13:54;;;;;;;;;;;;;;;21.31;38.56;102500.31;5077454;28;4067;-73
2022/03/11 02:16:21;;;;;;;;;;;;;;;21.30;38.32;102493.06;5076265;28;4242;-73
2022/03/11 02:18:48;;;;;;;;;;;;;;;21.31;38.45;102505.31;5072567;28;4159;-73
2022/03/11 02:21:15;;;;;;;;;;;;;;;21.31;38.42;102493.81;5071809;28;4159;-72
2022/03/11 02:23:42;;;;;;;;;;;;;;;21.30;38.50;102498.81;5074577;28;4069;-72
2022/03/11 02:26:08;;;;;;;;;;;;;;;21.30;38.50;102498.03;5076444;28;4460;-73
2022/03/11 02:28:35;;;;;;;;;;;;;;;21.30;38.34;102490.16;5073621;28;4055;-73
2022/03/11 02:31:01;;;;;;;;;;;;;;;21.30;38.57;102493.06;5073001;27;4179;-72
2022/03/11 02:33:27;;;;;;;;;;;;;;;21.30;38.51;102490.16;5076421;28;4009;-73
2022/03/11 02:35:54;;;;;;;;;;;;;;;21.30;38.46;102501.69;5072710;28;4035;-73
2022/03/11 02:38:20;;;;;;;;;;;;;;;21.30;38.50;102498.81;5076298;28;4050;-73
2022/03/11 02:40:47;;;;;;;;;;;;;;;21.29;38.46;102490.78;5080797;28;4048;-73
2022/03/11 02:43:15;;;;;;;;;;;;;;;21.28;38.37;102481.38;5080317;28;4493;-73
2022/03/11 02:45:41;;;;;;;;;;;;;;;21.28;38.31;102495.78;5080617;28;4463;-73
2022/03/11 02:48:08;;;;;;;;;;;;;;;21.28;38.49;102492.91;5075921;27;4254;-72
2022/03/11 02:50:34;;;;;;;;;;;;;;;21.30;38.31;102495.16;5080563;28;3931;-72
2022/03/11 02:53:01;;;;;;;;;;;;;;;21.29;38.37;102496.53;5068692;28;4351;-71
2022/03/11 02:55:27;;;;;;;;;;;;;;;21.29;38.28;102488.66;5073957;28;4222;-73
2022/03/11 02:57:54;;;;;;;;;;;;;;;21.29;38.37;102490.78;5067126;28;4366;-72
2022/03/11 03:00:20;;;;;;;;;;;;;;;21.29;38.27;102485.75;5069021;28;4244;-73
2022/03/11 03:02:46;;;;;;;;;;;;;;;21.29;38.36;102482.88;5070679;28;4031;-72
2022/03/11 03:05:13;;;;;;;;;;;;;;;21.26;38.29;102484.13;5075914;28;4138;-72
2022/03/11 03:07:40;;;;;;;;;;;;;;;21.27;38.31;102485.63;5081396;28;4385;-72
2022/03/11 03:10:06;;;;;;;;;;;;;;;21.26;38.22;102481.25;5080304;28;4039;-72
2022/03/11 03:12:33;;;;;;;;;;;;;;;21.27;38.31;102476.97;5078337;28;3979;-72
2022/03/11 03:14:59;;;;;;;;;;;;;;;21.27;38.28;102474.09;5079578;28;4182;-72
2022/03/11 03:17:28;;;;;;;;;;;;;;;21.26;38.30;102469.72;5077325;28;4194;-72
2022/03/11 03:19:58;;;;;;;;;;;;;;;21.26;38.37;102484.13;5078254;28;4232;-72
2022/03/11 03:22:25;;;;;;;;;;;;;;;21.26;38.35;102477.63;5079654;28;4036;-72
2022/03/11 03:24:51;;;;;;;;;;;;;;;21.26;38.21;102480.50;5079809;28;4091;-72
2022/03/11 03:27:18;;;;;;;;;;;;;;;21.24;38.26;102481.09;5080853;28;4134;-72
2022/03/11 03:29:44;;;;;;;;;;;;;;;21.24;38.30;102475.34;5081357;28;4162;-72
2022/03/11 03:32:10;;;;;;;;;;;;;;;21.24;38.16;102472.47;5079716;28;5242;-72
2022/03/11 03:34:37;;;;;;;;;;;;;;;21.24;38.21;102472.47;5078040;28;5259;-71
2022/03/11 03:37:04;;;;;;;;;;;;;;;21.23;38.20;102476.69;5076756;28;4314;-72
2022/03/11 03:39:30;;;;;;;;;;;;;;;21.25;38.02;102468.19;5076900;28;4008;-72
2022/03/11 03:41:57;;;;;;;;;;;;;;;21.25;38.26;102471.06;5075850;28;4345;-72
2022/03/11 03:44:23;;;;;;;;;;;;;;;21.26;38.23;102474.72;5078589;28;4436;-72
2022/03/11 03:46:49;;;;;;;;;;;;;;;21.26;38.35;102469.72;5081536;28;4232;-72
2022/03/11 03:49:16;;;;;;;;;;;;;;;21.27;38.37;102473.34;5077625;28;5503;-72
2022/03/11 03:51:42;;;;;;;;;;;;;;;21.25;38.21;102471.06;5072481;28;4109;-72
2022/03/11 03:54:12;;;;;;;;;;;;;;;21.27;38.17;102471.22;5074187;28;5579;-73
2022/03/11 03:56:38;;;;;;;;;;;;;;;21.27;38.21;102476.97;5081118;28;4156;-73
2022/03/11 03:59:05;;;;;;;;;;;;;;;21.27;38.16;102471.22;5079345;28;4197;-73
2022/03/11 04:01:34;;;;;;;;;;;;;;;21.27;38.12;102476.22;5078066;28;4209;-73
2022/03/11 04:04:02;;;;;;;;;;;;;;;21.26;38.08;102474.72;5078381;28;5080;-72
2022/03/11 04:06:29;;;;;;;;;;;;;;;21.25;38.30;102471.06;5078953;28;4129;-72
2022/03/11 04:08:56;;;;;;;;;;;;;;;21.24;38.06;102472.47;5077487;28;4070;-66
2022/03/11 04:11:23;;;;;;;;;;;;;;;21.24;38.10;102472.47;5078727;28;4235;-72
2022/03/11 04:13:50;;;;;;;;;;;;;;;21.25;38.07;102467.44;5077746;28;4078;-72
2022/03/11 04:16:22;;;;;;;;;;;;;;;21.23;38.05;102473.81;5078730;28;4251;-72
2022/03/11 04:18:48;;;;;;;;;;;;;;;21.23;37.86;102473.81;5077643;28;4247;-72
2022/03/11 04:21:15;;;;;;;;;;;;;;;21.22;37.92;102475.19;5077115;28;4179;-72
2022/03/11 04:23:41;;;;;;;;;;;;;;;21.22;37.98;102469.44;5076618;28;4242;-72
2022/03/11 04:26:08;;;;;;;;;;;;;;;21.21;38.16;102456.41;5075386;28;4224;-72
2022/03/11 04:28:34;;;;;;;;;;;;;;;21.22;37.85;102463.66;5078043;28;4078;-72
2022/03/11 04:31:02;;;;;;;;;;;;;;;21.23;37.87;102458.66;5078124;28;4130;-70
2022/03/11 04:33:28;;;;;;;;;;;;;;;21.24;37.97;102466.69;5078922;28;4223;-72
2022/03/11 04:35:55;;;;;;;;;;;;;;;21.23;37.97;102459.41;5077349;28;4128;-72
2022/03/11 04:38:21;;;;;;;;;;;;;;;21.23;38.01;102464.41;5078111;28;4034;-72
2022/03/11 04:40:47;;;;;;;;;;;;;;;21.24;38.00;102460.94;5078316;28;4279;-72
2022/03/11 04:43:14;;;;;;;;;;;;;;;21.25;37.88;102456.66;5078681;28;5260;-72
2022/03/11 04:45:41;;;;;;;;;;;;;;;21.25;38.03;102450.16;5077570;28;4266;-72
2022/03/11 04:48:08;;;;;;;;;;;;;;;21.25;38.00;102450.91;5077796;28;5234;-72
2022/03/11 04:50:34;;;;;;;;;;;;;;;21.24;38.01;102448.66;5074102;28;4168;-72
2022/03/11 04:53:00;;;;;;;;;;;;;;;21.23;38.09;102445.00;5064758;28;4347;-72
2022/03/11 04:55:27;;;;;;;;;;;;;;;21.23;38.06;102447.88;5077804;28;4092;-72
2022/03/11 04:57:53;;;;;;;;;;;;;;;21.23;37.97;102453.66;5078772;28;4572;-72
2022/03/11 05:00:19;;;;;;;;;;;;;;;21.21;37.90;102447.75;5077438;28;4080;-71
2022/03/11 05:02:46;;;;;;;;;;;;;;;21.20;37.81;102449.13;5076827;28;4133;-72
2022/03/11 05:05:12;;;;;;;;;;;;;;;21.20;37.85;102449.13;5075338;27;4341;-72
2022/03/11 05:07:39;;;;;;;;;;;;;;;21.19;37.82;102447.63;5072430;28;4063;-72
2022/03/11 05:10:06;;;;;;;;;;;;;;;21.18;37.93;102448.97;5077892;28;4271;-72
2022/03/11 05:12:32;;;;;;;;;;;;;;;21.17;37.79;102450.38;5076927;28;4076;-75
2022/03/11 05:14:58;;;;;;;;;;;;;;;21.19;37.77;102462.03;5077561;28;4320;-72
2022/03/11 05:17:25;;;;;;;;;;;;;;;21.18;37.70;102463.38;5078448;28;3969;-73
2022/03/11 05:19:51;;;;;;;;;;;;;;;21.19;37.86;102449.72;5077255;28;5492;-73
2022/03/11 05:22:18;;;;;;;;;;;;;;;21.17;37.77;102461.88;5074359;28;5318;-73
2022/03/11 05:24:45;;;;;;;;;;;;;;;21.19;37.93;102464.91;5077659;28;4177;-72
2022/03/11 05:27:12;;;;;;;;;;;;;;;21.19;37.84;102462.03;5076603;28;4084;-74
2022/03/11 05:29:40;;;;;;;;;;;;;;;21.19;37.83;102452.63;5076304;28;3996;-74
2022/03/11 05:32:06;;;;;;;;;;;;;;;21.19;37.89;102458.38;5074717;28;4232;-72
2022/03/11 05:34:39;;;;;;;;;;;;;;;21.19;38.00;102464.91;5073661;28;5373;-71
2022/03/11 05:37:06;;;;;;;;;;;;;;;21.19;37.91;102464.91;5075140;28;4124;-71
2022/03/11 05:39:32;;;;;;;;;;;;;;;21.19;37.99;102476.44;5074274;28;4292;-71
2022/03/11 05:41:59;;;;;;;;;;;;;;;21.21;38.01;102467.16;5076961;28;4940;-74
2022/03/11 05:44:25;;;;;;;;;;;;;;;21.20;38.06;102466.41;5074201;28;4060;-72
2022/03/11 05:46:53;;;;;;;;;;;;;;;21.21;38.12;102467.94;5077611;28;4517;-71
2022/03/11 05:49:19;;;;;;;;;;;;;;;21.21;38.09;102461.41;5075650;28;4199;-72
2022/03/11 05:51:45;;;;;;;;;;;;;;;21.19;38.24;102464.91;5076575;28;4174;-73
2022/03/11 05:54:12;;;;;;;;;;;;;;;21.22;38.83;102471.56;5072524;28;4192;-63
2022/03/11 05:56:38;;;;;;;;;;;;;;;21.21;38.58;102467.94;5070673;28;4289;-62
2022/03/11 05:59:05;;;;;;;;;;;;;;;21.20;39.36;102477.94;5072408;28;6468;-62
2022/03/11 06:01:32;;;;;;;;;;;;;;;21.21;38.82;102472.91;5073291;28;4248;-62
2022/03/11 06:04:01;;;;;;;;;;;;;;;21.21;39.00;102482.34;5075017;28;4279;-63
2022/03/11 06:06:30;;;;;;;;;;;;;;;21.23;38.96;102470.94;5073227;28;5276;-63
2022/03/11 06:08:56;;;;;;;;;;;;;;;21.23;39.64;102475.94;5075754;28;4247;-63
2022/03/11 06:11:23;;;;;;;;;;;;;;;21.21;39.85;102473.69;5075539;28;4116;-63
2022/03/11 06:13:49;;;;;;;;;;;;;;;21.20;39.91;102477.94;5076865;28;4185;-63
2022/03/11 06:16:16;;;;;;;;;;;;;;;21.21;39.67;102472.91;5071571;28;4205;-63
2022/03/11 06:18:42;;;;;;;;;;;;;;;21.28;39.77;102480.59;5075933;28;4064;-61
2022/03/11 06:21:09;;;;;;;;;;;;;;;21.22;39.91;102486.72;5073929;28;4106;-62
2022/03/11 06:23:36;;;;;;;;;;;;;;;21.15;40.20;102487.69;5072266;28;4519;-63
2022/03/11 06:26:03;;;;;;;;;;;;;;;20.87;40.69;102481.44;5077792;27;5394;-62
2022/03/11 06:28:29;;;;;;;;;;;;;;;20.80;39.78;102482.41;5075506;28;4253;-62
2022/03/11 06:30:56;;;;;;;;;;;;;;;20.54;39.00;102492.00;5077265;28;4311;-64
2022/03/11 06:33:22;;;;;;;;;;;;;;;20.37;37.62;102490.84;5079753;28;4039;-61
2022/03/11 06:35:49;;;;;;;;;;;;;;;20.31;36.98;102490.38;5079952;28;4357;-61
2022/03/11 06:38:15;;;;;;;;;;;;;;;20.28;36.14;102491.63;5078300;28;4338;-61
2022/03/11 06:40:49;;;;;;;;;;;;;;;20.05;35.88;102489.97;5078320;28;4208;-61
2022/03/11 06:43:19;;;;;;;;;;;;;;;19.93;34.59;102491.19;5078843;28;4315;-61
2022/03/11 06:45:45;;;;;;;;;;;;;;;20.06;34.34;102484.97;5076769;28;4104;-61
2022/03/11 06:48:13;;;;;;;;;;;;;;;20.14;34.01;102505.72;5079176;28;4089;-61
2022/03/11 06:50:40;;;;;;;;;;;;;;;20.16;33.55;102491.50;5040581;28;980539;-61
2022/03/11 06:53:06;;;;;;;;;;;;;;;20.39;34.08;102498.88;5087503;27;4147;-63
2022/03/11 06:55:32;;;;;;;;;;;;;;;20.50;33.91;102490.34;5076096;27;4086;-64
2022/03/11 06:58:00;;;;;;;;;;;;;;;20.53;33.85;102499.13;5077073;28;5264;-63
2022/03/11 07:00:26;;;;;;;;;;;;;;;20.57;33.81;102500.22;5078294;28;4161;-63
2022/03/11 07:02:53;;;;;;;;;;;;;;;20.34;32.50;102497.81;5077381;28;5880;-62
2022/03/11 07:05:19;;;;;;;;;;;;;;;20.03;32.31;102489.81;5077783;28;4266;-60
2022/03/11 07:07:46;;;;;;;;;;;;;;;20.23;31.96;102496.31;5078004;28;6419;-62
2022/03/11 07:10:16;;;;;;;;;;;;;;;20.13;31.27;102491.94;5076241;28;5547;-63
2022/03/11 07:12:42;;;;;;;;;;;;;;;20.15;31.05;102489.97;5080527;28;4167;-64
2022/03/11 07:15:09;;;;;;;;;;;;;;;20.18;30.72;102493.75;5075958;27;4225;-64
2022/03/11 07:17:35;;;;;;;;;;;;;;;20.09;30.45;102486.66;5078421;28;4057;-63
2022/03/11 07:20:04;;;;;;;;;;;;;;;20.20;30.14;102486.03;5067062;28;5690;-65
2022/03/11 07:22:32;;;;;;;;;;;;;;;20.67;31.26;102488.66;5075298;28;4358;-69
2022/03/11 07:24:58;;;;;;;;;;;;;;;20.74;31.73;102490.59;5075621;28;5526;-76
2022/03/11 07:27:25;;;;;;;;;;;;;;;19.45;27.79;102484.06;5073075;27;6100;-70
2022/03/11 07:29:51;;;;;;;;;;;;;;;20.06;28.02;102477.09;5071621;28;5556;-70
2022/03/11 07:32:18;;;;;;;;;;;;;;;20.47;29.53;102485.06;5077085;28;4624;-69
2022/03/11 07:34:44;;;;;;;;;;;;;;;20.66;30.97;102495.75;5078160;28;4231;-70
2022/03/11 07:37:12;;;;;;;;;;;;;;;20.76;31.60;102484.97;5077576;28;5951;-69
2022/03/11 07:39:39;;;;;;;;;;;;;;;20.81;31.77;102483.91;5075297;28;5109;-69
2022/03/11 07:42:06;;;;;;;;;;;;;;;20.85;31.82;102484.19;5077847;28;6046;-69
2022/03/11 07:44:33;;;;;;;;;;;;;;;20.88;32.21;102482.19;5078411;28;5706;-69
2022/03/11 07:46:59;;;;;;;;;;;;;;;20.91;32.54;102481.75;5076401;28;5662;-69
2022/03/11 07:49:27;;;;;;;;;;;;;;;20.95;32.60;102486.25;5076156;28;4514;-67
2022/03/11 07:51:54;;;;;;;;;;;;;;;20.96;32.86;102485.66;5077860;28;4406;-68
2022/03/11 07:54:20;;;;;;;;;;;;;;;20.99;32.91;102480.78;5077835;28;4734;-67
2022/03/11 07:56:47;;;;;;;;;;;;;;;21.01;33.21;102484.56;5077180;28;4086;-67
2022/03/11 07:59:13;;;;;;;;;;;;;;;21.02;33.44;102479.56;5075097;28;4021;-66
2022/03/11 08:01:39;;;;;;;;;;;;;;;21.05;33.75;102478.31;5076466;28;4967;-67
2022/03/11 08:04:06;;;;;;;;;;;;;;;20.85;34.09;102484.19;5075129;28;4100;-66
2022/03/11 08:06:32;;;;;;;;;;;;;;;21.00;34.01;102499.56;5077132;28;4125;-67
2022/03/11 08:08:58;;;;;;;;;;;;;;;21.05;34.08;102489.84;5074744;28;5593;-66
2022/03/11 08:11:25;;;;;;;;;;;;;;;21.16;33.91;102483.41;5077139;28;3988;-67
2022/03/11 08:13:51;;;;;;;;;;;;;;;21.12;34.09;102488.91;5076842;28;4280;-67
2022/03/11 08:16:18;;;;;;;;;;;;;;;21.10;33.90;102491.66;5066472;28;5675;-67
2022/03/11 08:18:45;;;;;;;;;;;;;;;20.93;33.25;102499.13;5072012;28;4509;-66
2022/03/11 08:21:16;;;;;;;;;;;;;;;21.00;33.33;102493.81;5074644;28;5683;-65
2022/03/11 08:23:43;;;;;;;;;;;;;;;21.26;33.39;102489.13;5075440;28;4242;-65
2022/03/11 08:26:10;;;;;;;;;;;;;;;21.37;33.59;102479.03;5074275;28;5300;-69
2022/03/11 08:28:41;;;;;;;;;;;;;;;21.34;33.76;102489.69;5072735;28;4070;-66
2022/03/11 08:31:28;;;;;;;;;;;;;;;21.10;34.39;102497.41;5071430;28;4200;-68
2022/03/11 08:33:54;;;;;;;;;;;;;;;21.00;35.02;102488.06;5078363;28;5401;-67
2022/03/11 08:36:23;;;;;;;;;;;;;;;20.93;34.32;102496.25;5077211;28;4150;-79
2022/03/11 08:38:53;;;;;;;;;;;;;;;20.30;33.16;102491.75;5077243;28;4139;-73
2022/03/11 08:41:20;;;;;;;;;;;;;;;20.49;33.03;102482.31;5075377;28;5590;-62
2022/03/11 08:43:49;;;;;;;;;;;;;;;20.72;34.20;102493.31;5076550;28;4542;-62
2022/03/11 08:46:15;;;;;;;;;;;;;;;21.06;34.61;102483.47;5077038;28;4245;-62
2022/03/11 08:48:43;;;;;;;;;;;;;;;21.15;34.65;102487.69;5074537;28;5588;-63
2022/03/11 08:51:10;;;;;;;;;;;;;;;21.14;34.74;102489.03;5077071;28;4132;-64
2022/03/11 08:53:36;;;;;;;;;;;;;;;21.16;34.69;102483.41;5068039;28;5082;-64
2022/03/11 08:56:03;;;;;;;;;;;;;;;21.17;34.77;102490.69;5069113;28;4564;-64
2022/03/11 08:58:29;;;;;;;;;;;;;;;21.13;34.70;102490.41;5073428;28;4225;-68
2022/03/11 09:00:56;;;;;;;;;;;;;;;21.11;34.76;102488.13;5070952;28;4804;-65
2022/03/11 09:03:23;;;;;;;;;;;;;;;21.14;35.11;102489.03;5074407;28;4919;-67
2022/03/11 09:05:50;;;;;;;;;;;;;;;21.15;35.12;102487.69;5073830;28;5221;-65
2022/03/11 09:08:17;;;;;;;;;;;;;;;21.16;35.28;102489.16;5072308;28;4156;-64
2022/03/11 09:10:43;;;;;;;;;;;;;;;21.16;35.33;102483.41;5077459;28;4064;-66
2022/03/11 09:13:10;;;;;;;;;;;;;;;21.16;35.41;102483.41;5071590;27;4000;-65
2022/03/11 09:15:36;;;;;;;;;;;;;;;21.19;35.44;102487.97;5076888;28;4732;-65
2022/03/11 09:18:08;;;;;;;;;;;;;;;21.20;35.45;102483.69;5077117;28;4592;-65
2022/03/11 09:20:34;;;;;;;;;;;;;;;21.21;35.41;102485.22;5077120;28;4118;-66
2022/03/11 09:23:04;;;;;;;;;;;;;;;21.20;35.49;102483.69;5076224;28;4143;-65
2022/03/11 09:25:31;;;;;;;;;;;;;;;21.20;35.68;102483.69;5075971;28;4129;-66
2022/03/11 09:28:03;;;;;;;;;;;;;;;21.09;35.91;102481.47;5077548;28;4356;-65
2022/03/11 09:30:29;;;;;;;;;;;;;;;20.97;36.10;102484.28;5078197;28;4569;-65
2022/03/11 09:32:56;;;;;;;;;;;;;;;20.92;36.29;102480.34;5071902;28;4150;-65
2022/03/11 09:35:22;;;;;;;;;;;;;;;20.93;36.34;102478.97;5075782;28;6126;-66
2022/03/11 09:37:49;;;;;;;;;;;;;;;20.93;36.36;102478.97;5067998;28;4083;-64
2022/03/11 09:40:16;;;;;;;;;;;;;;;21.10;36.15;102480.88;5069396;28;4059;-69
2022/03/11 09:42:42;;;;;;;;;;;;;;;21.15;36.07;102467.50;5071198;28;5322;-71
2022/03/11 09:45:09;;;;;;;;;;;;;;;21.07;36.38;102464.06;5071872;27;4633;-76
2022/03/11 09:47:37;;;;;;;;;;;;;;;21.31;37.05;102459.97;5082071;28;4112;-74
2022/03/11 09:50:03;;;;;;;;;;;;;;;21.66;36.41;102462.31;5072576;27;4241;-74
2022/03/11 09:52:29;;;;;;;;;;;;;;;21.80;36.08;102467.50;5080384;28;4224;-72
2022/03/11 09:54:56;;;;;;;;;;;;;;;21.89;36.10;102463.78;5078334;27;4106;-71
2022/03/11 09:57:23;;;;;;;;;;;;;;;21.93;36.01;102464.81;5079970;28;4154;-66
2022/03/11 09:59:51;;;;;;;;;;;;;;;21.98;36.01;102465.81;5079187;28;4189;-66
2022/03/11 10:02:23;;;;;;;;;;;;;;;21.81;36.29;102458.25;5088634;28;4110;-68
2022/03/11 10:04:50;;;;;;;;;;;;;;;21.74;36.40;102465.75;5087008;27;4198;-68
2022/03/11 10:07:36;;;;;;;;;;;;;;;21.72;36.72;102461.97;5083132;28;4346;-66
2022/03/11 10:10:14;;;;;;;;;;;;;;;21.92;36.58;102474.06;5085790;28;4181;-71
2022/03/11 10:13:00;;;;;;;;;;;;;;;22.00;36.42;102457.31;5090910;28;4604;-73
2022/03/11 10:15:27;;;;;;;;;;;;;;;21.85;36.71;102449.09;5089012;28;4516;-71
2022/03/11 10:17:55;;;;;;;;;;;;;;;22.05;36.29;102452.56;5088036;28;4102;-74
2022/03/11 10:20:21;;;;;;;;;;;;;;;22.14;36.71;102461.09;5081702;28;4043;-70
2022/03/11 10:22:48;;;;;;;;;;;;;;;22.21;36.69;102447.84;5084561;28;4135;-70
2022/03/11 10:25:25;;;;;;;;;;;;;;;22.26;36.54;102448.88;5081880;28;4372;-70
2022/03/11 10:27:55;;;;;;;;;;;;;;;22.33;36.59;102444.97;5079428;28;4123;-70
2022/03/11 10:30:22;;;;;;;;;;;;;;;22.41;36.32;102448.41;5077780;28;4090;-71
2022/03/11 10:32:49;;;;;;;;;;;;;;;22.31;36.51;102439.09;5078060;28;4036;-70
2022/03/11 10:35:18;;;;;;;;;;;;;;;22.43;36.52;102439.13;5081255;28;4180;-70
2022/03/11 10:38:03;;;;;;;;;;;;;;;22.45;36.44;102445.78;5084486;28;4221;-69
2022/03/11 10:40:31;;;;;;;;;;;;;;;22.41;36.84;102436.09;5084436;28;4242;-71
2022/03/11 10:43:17;;;;;;;;;;;;;;;22.44;36.56;102435.59;5081434;28;4134;-70
2022/03/11 10:45:45;;;;;;;;;;;;;;;22.31;36.66;102436.19;5077844;27;4175;-71
2022/03/11 10:48:11;;;;;;;;;;;;;;;22.11;37.07;102427.75;5078982;28;4074;-70
2022/03/11 10:50:40;;;;;;;;;;;;;;;22.10;37.41;102434.88;5081713;28;4074;-69
2022/03/11 10:53:07;;;;;;;;;;;;;;;22.38;37.04;102432.34;5082748;28;4200;-70
2022/03/11 10:55:34;;;;;;;;;;;;;;;22.35;36.79;102433.56;5082160;28;4077;-75
2022/03/11 10:58:01;;;;;;;;;;;;;;;22.09;37.33;102429.75;5075911;28;4139;-71
2022/03/11 11:00:31;;;;;;;;;;;;;;;22.20;37.45;102434.03;5076803;28;4102;-71
2022/03/11 11:02:58;;;;;;;;;;;;;;;22.15;37.50;102427.22;5081913;28;4231;-70
2022/03/11 11:05:25;;;;;;;;;;;;;;;22.37;37.05;102419.28;5076374;28;4108;-70
2022/03/11 11:07:51;;;;;;;;;;;;;;;22.29;37.72;102428.19;5079337;28;4038;-69
2022/03/11 11:10:18;;;;;;;;;;;;;;;22.28;38.01;102429.53;5075068;28;4085;-68
2022/03/11 11:12:45;;;;;;;;;;;;;;;22.27;38.55;102427.31;5079232;28;4106;-66
2022/03/11 11:15:11;;;;;;;;;;;;;;;22.53;37.84;102416.66;5078831;28;3979;-68
2022/03/11 11:17:38;;;;;;;;;;;;;;;22.68;37.55;102412.53;5077736;27;3995;-72
2022/03/11 11:20:25;;;;;;;;;;;;;;;22.64;37.57;102412.25;5079260;28;4134;-71
2022/03/11 11:22:52;;;;;;;;;;;;;;;22.57;37.54;102420.53;5071304;28;3957;-73
2022/03/11 11:25:19;;;;;;;;;;;;;;;22.45;37.68;102416.91;5080428;28;4032;-73
2022/03/11 11:27:46;;;;;;;;;;;;;;;22.52;37.84;102415.16;5087412;28;4088;-75
2022/03/11 11:30:19;;;;;;;;;;;;;;;22.58;37.50;102407.59;5077766;28;4044;-69
2022/03/11 11:32:45;;;;;;;;;;;;;;;22.59;37.70;102400.47;5082070;28;4162;-70
2022/03/11 11:35:30;;;;;;;;;;;;;;;22.64;37.98;102410.13;5082739;28;4536;-71
2022/03/11 11:37:58;;;;;;;;;;;;;;;22.62;38.17;102407.09;5081754;28;4105;-70
2022/03/11 11:40:27;;;;;;;;;;;;;;;22.52;38.05;102401.47;5086927;28;4088;-72
2022/03/11 11:43:29;;;;;;;;;;;;;;;22.46;38.36;102403.97;5085136;28;4225;-70
2022/03/11 11:45:56;;;;;;;;;;;;;;;22.56;38.37;102387.28;5078963;28;4160;-69
2022/03/11 11:50:59;;;;;;;;;;;;;;;22.55;37.36;102370.59;5078076;28;4311;-74
2022/03/11 11:53:43;;;;;;;;;;;;;;;22.51;37.73;102387.66;5081816;28;3996;-73
2022/03/11 11:56:27;;;;;;;;;;;;;;;22.54;37.44;102372.72;5082487;27;4322;-71
2022/03/11 11:58:57;;;;;;;;;;;;;;;22.67;37.62;102371.31;5075600;28;4081;-71
2022/03/11 12:01:41;;;;;;;;;;;;;;;22.70;37.59;102375.06;5085253;28;4157;-69
2022/03/11 12:04:26;;;;;;;;;;;;;;;22.70;37.31;102360.63;5076737;28;4105;-70
2022/03/11 12:06:59;;;;;;;;;;;;;;;22.66;37.60;102363.31;5076101;28;4161;-68
2022/03/11 12:12:20;;;;;;;;;;;;;;;22.58;37.54;102355.63;5079307;28;5238;-69
2022/03/11 12:15:08;;;;;;;;;;;;;;;22.58;37.67;102352.75;5080708;27;4207;-68
2022/03/11 12:17:34;;;;;;;;;;;;;;;22.63;37.48;102332.78;5076431;28;4278;-72
2022/03/11 12:20:19;;;;;;;;;;;;;;;22.70;37.43;102344.09;5077785;28;5522;-69
2022/03/11 12:22:52;;;;;;;;;;;;;;;22.77;37.17;102348.09;5082658;28;4164;-70
2022/03/11 12:25:22;;;;;;;;;;;;;;;22.84;37.04;102344.19;5079260;28;4196;-71
2022/03/11 12:28:07;;;;;;;;;;;;;;;22.92;37.06;102350.44;5080651;28;4151;-68
2022/03/11 12:30:39;;;;;;;;;;;;;;;22.98;36.80;102319.03;5079629;28;4128;-71
2022/03/11 12:33:26;;;;;;;;;;;;;;;22.86;37.31;102324.09;5080180;28;4200;-70
2022/03/11 12:35:54;;;;;;;;;;;;;;;22.65;37.39;102318.47;5077530;28;4273;-69
2022/03/11 12:38:24;;;;;;;;;;;;;;;22.71;37.55;102321.72;5075548;28;3943;-72
2022/03/11 12:40:51;;;;;;;;;;;;;;;22.78;37.67;102312.03;5080484;28;4022;-66
2022/03/11 12:43:20;;;;;;;;;;;;;;;22.80;37.52;102309.28;5079370;28;4621;-74
2022/03/11 12:45:56;;;;;;;;;;;;;;;22.80;37.47;102309.28;5082911;28;4186;-73
2022/03/11 12:48:26;;;;;;;;;;;;;;;22.77;37.62;102301.88;5079065;28;4511;-69
2022/03/11 12:50:52;;;;;;;;;;;;;;;22.82;37.82;102292.06;5074867;28;4204;-68
2022/03/11 12:53:19;;;;;;;;;;;;;;;22.82;37.65;102294.97;5077652;28;3984;-67
2022/03/11 12:55:46;;;;;;;;;;;;;;;22.82;37.50;102276.88;5077285;28;4146;-66
2022/03/11 12:58:15;;;;;;;;;;;;;;;22.81;37.42;102290.56;5078080;28;4291;-70